Netherland Tide — YJVY9 — position and weather

sailwx.info

Track history (hours):
 
Tides and Currents Weather Stations Pressure Air Temp Water Temp Dewpoint Dewpoint Depression Visibility Wind Speed Wind Dir Waves Ship Positions

Netherland Tide

Last reported at 2017-Nov-18 09:44 UTC. Time now 2017-Nov-19 01:11 UTC.
Position S 05°36' E 011°42'.

Length 70 m; draft 5 m.

Type: Tug. MMSI: 576212000.

Date/timePositionNaut miles runAvg speedWind from/ knotsBaromVisibWave heightAir tempDewpointWater temp
2017-Nov-18 09:44S 05°36' E 011°42'0 0.1
2017-Nov-18 07:32S 05°36' E 011°42'0 0.0
2017-Nov-18 07:27S 05°36' E 011°42'0 0.1
2017-Nov-18 07:00S 05°36' E 011°42'0 0.5
2017-Nov-18 06:30S 05°36' E 011°42'0 0.1
2017-Nov-18 05:56S 05°36' E 011°42'12 0.5
2017-Nov-17 05:01S 05°25' E 011°40'0 8.5
2017-Nov-17 04:59S 05°24' E 011°40'2 4.3
2017-Nov-17 04:28S 05°25' E 011°42'  
2017-Nov-14 18:22S 05°24' E 011°42'3 7.7
2017-Nov-14 17:59S 05°25' E 011°40'0 0.7
2017-Nov-14 17:30S 05°25' E 011°39'3 0.7
2017-Nov-14 13:33S 05°27' E 011°41'211.2
2017-Nov-14 13:22S 05°25' E 011°40'3 1.6
2017-Nov-14 11:21S 05°22' E 011°39'  
Track history (hours):
 
Tides and Currents Weather Stations Pressure Air Temp Water Temp Dewpoint Dewpoint Depression Visibility Wind Speed Wind Dir Waves Ship Positions

Netherland Tide

Last reported at 2017-Nov-18 09:44 UTC. Time now 2017-Nov-19 01:11 UTC.
Position S 05°36' E 011°42'.

Length 70 m; draft 5 m.

Type: Tug. MMSI: 576212000.

Date/timePositionNaut miles runAvg speedWind from/ knotsBaromVisibWave heightAir tempDewpointWater temp
2017-Nov-18 09:44S 05°36' E 011°42'0 0.1
2017-Nov-18 07:32S 05°36' E 011°42'0 0.0
2017-Nov-18 07:27S 05°36' E 011°42'0 0.1
2017-Nov-18 07:00S 05°36' E 011°42'0 0.5
2017-Nov-18 06:30S 05°36' E 011°42'0 0.1
2017-Nov-18 05:56S 05°36' E 011°42'12 0.5
2017-Nov-17 05:01S 05°25' E 011°40'0 8.5
2017-Nov-17 04:59S 05°24' E 011°40'2 4.3
2017-Nov-17 04:28S 05°25' E 011°42'  
2017-Nov-14 18:22S 05°24' E 011°42'3 7.7
2017-Nov-14 17:59S 05°25' E 011°40'0 0.7
2017-Nov-14 17:30S 05°25' E 011°39'3 0.7
2017-Nov-14 13:33S 05°27' E 011°41'211.2
2017-Nov-14 13:22S 05°25' E 011°40'3 1.6
2017-Nov-14 11:21S 05°22' E 011°39'  

Dump ship's entire track history